createdAt,value
2018-09-18T00:01:09.793Z,17.50
2018-09-18T00:03:38.111Z,17.50
2018-09-18T00:06:07.137Z,17.50
2018-09-18T00:08:35.443Z,17.50
2018-09-18T00:11:03.739Z,17.50
2018-09-18T00:13:32.025Z,17.40
2018-09-18T00:16:00.185Z,17.40
2018-09-18T00:18:28.346Z,17.40
2018-09-18T00:20:56.563Z,17.40
2018-09-18T00:23:24.937Z,17.30
2018-09-18T00:25:53.143Z,17.30
2018-09-18T00:28:21.337Z,17.20
2018-09-18T00:30:49.764Z,17.20
2018-09-18T00:33:17.927Z,17.30
2018-09-18T00:35:46.063Z,17.30
2018-09-18T00:38:14.452Z,17.30
2018-09-18T00:40:42.610Z,17.30
2018-09-18T00:43:10.954Z,17.30
2018-09-18T00:45:39.303Z,17.30
2018-09-18T00:48:07.675Z,17.20
2018-09-18T00:50:35.810Z,17.10
2018-09-18T00:53:03.953Z,17.10
2018-09-18T00:55:32.263Z,17.00
2018-09-18T00:58:00.448Z,17.00
2018-09-18T01:00:28.755Z,17.10
2018-09-18T01:02:56.993Z,17.00
2018-09-18T01:05:25.477Z,16.90
2018-09-18T01:07:53.738Z,16.90
2018-09-18T01:10:21.976Z,16.90
2018-09-18T01:12:50.290Z,16.80
2018-09-18T01:15:18.651Z,16.80
2018-09-18T01:17:46.776Z,16.70
2018-09-18T01:20:15.146Z,16.70
2018-09-18T01:22:43.923Z,16.70
2018-09-18T01:25:12.081Z,16.70
2018-09-18T01:27:40.286Z,16.60
2018-09-18T01:30:08.554Z,16.60
2018-09-18T01:32:36.773Z,16.60
2018-09-18T01:35:05.197Z,16.60
2018-09-18T01:37:33.300Z,16.70
2018-09-18T01:40:01.622Z,16.70
2018-09-18T01:42:29.791Z,16.70
2018-09-18T01:44:58.768Z,16.70
2018-09-18T01:47:26.950Z,16.70
2018-09-18T01:49:55.124Z,16.70
2018-09-18T01:52:23.484Z,16.70
2018-09-18T01:54:51.963Z,16.60
2018-09-18T01:57:20.205Z,16.60
2018-09-18T01:59:49.291Z,16.60
2018-09-18T02:02:17.465Z,16.50
2018-09-18T02:04:45.565Z,16.50
2018-09-18T02:07:13.725Z,16.50
2018-09-18T02:09:42.025Z,16.50
2018-09-18T02:12:10.223Z,16.60
2018-09-18T02:14:38.519Z,16.70
2018-09-18T02:17:06.697Z,16.80
2018-09-18T02:19:34.937Z,16.80
2018-09-18T02:22:03.194Z,16.80
2018-09-18T02:24:31.485Z,16.80
2018-09-18T02:26:59.675Z,16.80
2018-09-18T02:29:27.911Z,16.70
2018-09-18T02:31:56.195Z,16.70
2018-09-18T02:34:24.614Z,16.70
2018-09-18T02:36:52.956Z,16.80
2018-09-18T02:39:21.275Z,16.80
2018-09-18T02:41:49.521Z,16.70
2018-09-18T02:44:17.614Z,16.70
2018-09-18T02:46:46.124Z,16.70
2018-09-18T02:49:14.283Z,16.60
2018-09-18T02:51:42.378Z,16.60
2018-09-18T02:54:10.505Z,16.60
2018-09-18T02:56:39.030Z,16.80
2018-09-18T02:59:07.216Z,16.80
2018-09-18T03:01:35.598Z,16.80
2018-09-18T03:04:03.797Z,16.80
2018-09-18T03:06:32.003Z,16.80
2018-09-18T03:09:00.188Z,16.90
2018-09-18T03:11:28.716Z,16.90
2018-09-18T03:13:56.764Z,16.80
2018-09-18T03:16:25.110Z,16.80
2018-09-18T03:18:53.262Z,16.80
2018-09-18T03:21:21.562Z,16.80
2018-09-18T03:23:49.778Z,16.80
2018-09-18T03:26:18.110Z,16.80
2018-09-18T03:28:46.344Z,16.70
2018-09-18T03:31:14.423Z,16.80
2018-09-18T03:33:42.663Z,16.80
2018-09-18T03:36:11.155Z,16.80
2018-09-18T03:38:39.293Z,16.80
2018-09-18T03:41:08.597Z,16.90
2018-09-18T03:43:36.726Z,17.00
2018-09-18T03:46:05.104Z,17.00
2018-09-18T03:48:33.333Z,17.00
2018-09-18T03:51:01.697Z,17.20
2018-09-18T03:53:29.836Z,17.20
2018-09-18T03:55:58.057Z,17.20
2018-09-18T03:58:26.336Z,17.10
2018-09-18T04:00:54.571Z,17.00
2018-09-18T04:03:22.711Z,17.00
2018-09-18T04:05:51.018Z,17.00
2018-09-18T04:08:19.135Z,17.00
2018-09-18T04:10:48.003Z,16.90
2018-09-18T04:13:16.274Z,16.80
2018-09-18T04:15:44.383Z,16.80
2018-09-18T04:18:15.539Z,16.80
2018-09-18T04:20:43.713Z,16.90
2018-09-18T04:23:11.813Z,16.90
2018-09-18T04:25:40.086Z,16.80
2018-09-18T04:28:08.417Z,16.80
2018-09-18T04:30:36.535Z,16.80
2018-09-18T04:33:04.664Z,16.70
2018-09-18T04:35:32.857Z,16.70
2018-09-18T04:38:01.125Z,16.70
2018-09-18T04:40:29.298Z,16.70
2018-09-18T04:42:57.511Z,16.70
2018-09-18T04:45:25.630Z,16.70
2018-09-18T04:47:53.818Z,16.70
2018-09-18T04:50:22.051Z,16.80
2018-09-18T04:52:50.240Z,16.70
2018-09-18T04:55:18.412Z,16.70
2018-09-18T04:57:46.514Z,16.70
2018-09-18T05:00:15.258Z,16.80
2018-09-18T05:02:43.412Z,16.80
2018-09-18T05:05:11.664Z,16.90
2018-09-18T05:07:39.838Z,16.90
2018-09-18T05:10:08.110Z,17.00
2018-09-18T05:12:36.406Z,17.00
2018-09-18T05:15:04.652Z,17.00
2018-09-18T05:17:32.963Z,17.10
2018-09-18T05:20:01.074Z,17.20
2018-09-18T05:22:29.478Z,17.30
2018-09-18T05:24:57.624Z,17.40
2018-09-18T05:27:26.035Z,17.30
2018-09-18T05:29:54.178Z,17.40
2018-09-18T05:32:22.705Z,17.40
2018-09-18T05:34:50.975Z,17.50
2018-09-18T05:37:19.379Z,17.50
2018-09-18T05:39:47.689Z,17.60
2018-09-18T05:42:15.993Z,17.60
2018-09-18T05:44:44.153Z,17.60
2018-09-18T05:47:12.763Z,17.70
2018-09-18T05:49:41.312Z,17.80
2018-09-18T05:52:09.683Z,17.80
2018-09-18T05:54:38.035Z,17.90
2018-09-18T05:57:06.370Z,17.90
2018-09-18T05:59:34.671Z,17.90
2018-09-18T06:02:02.835Z,18.00
2018-09-18T06:04:31.093Z,18.10
2018-09-18T06:06:59.335Z,18.10
2018-09-18T06:09:27.579Z,18.10
2018-09-18T06:11:55.779Z,18.20
2018-09-18T06:14:23.983Z,18.20
2018-09-18T06:16:52.367Z,18.30
2018-09-18T06:19:21.267Z,18.40
2018-09-18T06:21:49.449Z,18.50
2018-09-18T06:24:24.265Z,18.50
2018-09-18T06:26:52.493Z,18.60
2018-09-18T06:29:20.849Z,18.70
2018-09-18T06:31:48.976Z,18.70
2018-09-18T06:34:17.151Z,18.70
2018-09-18T06:36:45.403Z,18.90
2018-09-18T06:39:13.678Z,18.90
2018-09-18T06:41:42.019Z,18.90
2018-09-18T06:44:10.123Z,19.00
2018-09-18T06:46:38.375Z,19.10
2018-09-18T06:49:06.617Z,19.10
2018-09-18T06:51:34.753Z,19.20
2018-09-18T06:56:31.063Z,19.30
2018-09-18T06:58:59.436Z,19.30
2018-09-18T07:01:27.549Z,19.30
2018-09-18T07:03:55.797Z,19.30
2018-09-18T07:06:23.981Z,19.40
2018-09-18T07:08:52.265Z,19.40
2018-09-18T07:14:14.165Z,19.60
2018-09-18T07:16:42.449Z,19.60
2018-09-18T07:19:10.665Z,19.60
2018-09-18T07:21:38.838Z,19.80
2018-09-18T07:24:07.030Z,19.90
2018-09-18T07:26:35.249Z,20.00
2018-09-18T07:29:03.494Z,20.10
2018-09-18T07:31:31.594Z,20.20
2018-09-18T07:33:59.721Z,20.20
2018-09-18T07:36:27.940Z,20.40
2018-09-18T07:38:56.203Z,20.50
2018-09-18T07:41:24.860Z,20.60
2018-09-18T07:43:53.136Z,20.60
2018-09-18T07:46:22.013Z,20.60
2018-09-18T07:48:50.135Z,20.60
2018-09-18T07:51:18.366Z,20.70
2018-09-18T07:53:46.515Z,20.70
2018-09-18T07:56:14.771Z,20.80
2018-09-18T07:58:42.985Z,20.90
2018-09-18T08:01:11.372Z,21.00
2018-09-18T08:03:39.701Z,21.00
2018-09-18T08:06:07.969Z,21.20
2018-09-18T08:08:36.198Z,21.30
2018-09-18T08:11:04.469Z,21.40
2018-09-18T08:13:32.800Z,21.50
2018-09-18T08:16:00.980Z,21.70
2018-09-18T08:18:29.154Z,21.80
2018-09-18T08:20:57.370Z,22.00
2018-09-18T08:23:25.666Z,22.10
2018-09-18T08:25:53.876Z,22.30
2018-09-18T08:28:22.772Z,22.50
2018-09-18T08:30:50.940Z,22.60
2018-09-18T08:33:19.133Z,22.80
2018-09-18T08:35:47.268Z,23.00
2018-09-18T08:38:15.532Z,23.10
2018-09-18T08:40:43.750Z,23.20
2018-09-18T08:43:12.582Z,23.40
2018-09-18T08:45:40.784Z,23.40
2018-09-18T08:48:09.118Z,23.40
2018-09-18T08:50:37.354Z,23.50
2018-09-18T08:53:05.637Z,23.60
2018-09-18T08:55:33.823Z,23.80
2018-09-18T08:58:02.064Z,23.90
2018-09-18T09:00:30.370Z,24.00
2018-09-18T09:02:58.575Z,24.00
2018-09-18T09:05:26.734Z,24.10
2018-09-18T09:07:55.153Z,24.30
2018-09-18T09:10:23.369Z,25.40
2018-09-18T09:12:51.456Z,28.00
2018-09-18T09:15:19.771Z,30.90
2018-09-18T09:17:48.021Z,33.20
2018-09-18T09:20:16.258Z,34.20
2018-09-18T09:22:51.173Z,35.70
2018-09-18T09:25:19.509Z,36.70
2018-09-18T09:27:48.029Z,37.30
2018-09-18T09:30:16.176Z,38.10
2018-09-18T09:32:44.325Z,39.10
2018-09-18T09:35:12.582Z,38.80
2018-09-18T09:37:40.871Z,38.30
2018-09-18T09:40:09.097Z,40.20
2018-09-18T09:42:37.331Z,41.00
2018-09-18T09:45:05.688Z,41.70
2018-09-18T09:47:33.769Z,41.20
2018-09-18T09:50:02.033Z,40.30
2018-09-18T09:52:30.365Z,40.90
2018-09-18T09:54:58.593Z,39.70
2018-09-18T09:57:26.822Z,39.20
2018-09-18T09:59:54.965Z,40.30
2018-09-18T10:02:28.560Z,41.00
2018-09-18T10:04:57.906Z,41.60
2018-09-18T10:07:26.071Z,43.10
2018-09-18T10:09:54.273Z,43.40
2018-09-18T10:12:22.470Z,42.70
2018-09-18T10:14:50.771Z,41.50
2018-09-18T10:17:19.617Z,40.50
2018-09-18T10:19:47.837Z,42.10
2018-09-18T10:22:16.065Z,43.80
2018-09-18T10:24:44.324Z,44.10
2018-09-18T10:27:12.570Z,44.50
2018-09-18T10:29:40.798Z,44.60
2018-09-18T10:32:08.947Z,43.80
2018-09-18T10:34:37.316Z,45.00
2018-09-18T10:37:05.563Z,46.70
2018-09-18T10:39:33.834Z,47.20
2018-09-18T10:42:02.008Z,46.50
2018-09-18T10:44:30.189Z,45.10
2018-09-18T10:46:58.321Z,43.30
2018-09-18T10:49:27.327Z,40.30
2018-09-18T10:51:55.712Z,38.90
2018-09-18T10:54:23.936Z,37.10
2018-09-18T10:56:52.232Z,36.70
2018-09-18T10:59:20.485Z,36.40
2018-09-18T11:01:48.794Z,35.50
2018-09-18T11:04:16.873Z,35.30
2018-09-18T11:06:45.035Z,37.00
2018-09-18T11:09:13.259Z,39.00
2018-09-18T11:11:41.650Z,40.90
2018-09-18T11:14:11.409Z,42.60
2018-09-18T11:16:39.633Z,43.60
2018-09-18T11:19:08.521Z,43.10
2018-09-18T11:21:36.954Z,44.60
2018-09-18T11:24:05.510Z,44.50
2018-09-18T11:26:33.763Z,45.30
2018-09-18T11:29:02.734Z,46.80
2018-09-18T11:31:30.995Z,47.40
2018-09-18T11:33:59.199Z,48.10
2018-09-18T11:36:28.093Z,47.30
2018-09-18T11:38:56.968Z,46.90
2018-09-18T11:41:25.515Z,46.40
2018-09-18T11:43:53.975Z,47.00
2018-09-18T11:46:22.181Z,47.10
2018-09-18T11:48:50.419Z,46.90
2018-09-18T11:51:18.954Z,46.70
2018-09-18T11:53:47.111Z,46.20
2018-09-18T11:56:15.343Z,46.30
2018-09-18T11:58:43.581Z,46.30
2018-09-18T12:01:11.921Z,47.30
2018-09-18T12:03:40.051Z,47.20
2018-09-18T12:06:08.292Z,47.70
2018-09-18T12:08:43.247Z,47.80
2018-09-18T12:11:11.561Z,47.70
2018-09-18T12:13:39.753Z,48.30
2018-09-18T12:16:08.119Z,48.30
2018-09-18T12:18:36.261Z,48.50
2018-09-18T12:21:05.082Z,47.80
2018-09-18T12:23:33.199Z,48.20
2018-09-18T12:26:01.397Z,48.70
2018-09-18T12:28:29.569Z,47.80
2018-09-18T12:30:57.726Z,48.20
2018-09-18T12:33:25.936Z,48.30
2018-09-18T12:35:54.112Z,48.10
2018-09-18T12:38:22.310Z,48.00
2018-09-18T12:40:50.516Z,48.40
2018-09-18T12:43:18.780Z,49.20
2018-09-18T12:45:47.002Z,48.80
2018-09-18T12:48:16.206Z,47.40
2018-09-18T12:50:44.396Z,48.30
2018-09-18T12:53:12.510Z,48.60
2018-09-18T12:55:40.702Z,49.40
2018-09-18T12:58:08.894Z,48.80
2018-09-18T13:00:37.008Z,47.50
2018-09-18T13:03:05.200Z,45.60
2018-09-18T13:05:33.452Z,46.00
2018-09-18T13:08:01.746Z,47.00
2018-09-18T13:10:29.918Z,46.30
2018-09-18T13:12:58.812Z,45.10
2018-09-18T13:15:27.043Z,45.10
2018-09-18T13:17:55.298Z,45.50
2018-09-18T13:20:23.499Z,45.20
2018-09-18T13:22:52.207Z,45.70
2018-09-18T13:25:20.457Z,45.90
2018-09-18T13:27:48.755Z,45.10
2018-09-18T13:30:17.104Z,45.80
2018-09-18T13:32:45.442Z,46.30
2018-09-18T13:35:13.543Z,47.00
2018-09-18T13:37:41.743Z,47.30
2018-09-18T13:40:10.033Z,47.40
2018-09-18T13:42:38.187Z,46.20
2018-09-18T13:45:06.453Z,45.30
2018-09-18T13:47:34.583Z,44.70
2018-09-18T13:50:02.875Z,43.90
2018-09-18T13:52:31.072Z,44.40
2018-09-18T13:54:59.273Z,44.30
2018-09-18T13:57:27.654Z,43.90
2018-09-18T13:59:55.914Z,44.00
2018-09-18T14:02:24.099Z,44.30
2018-09-18T14:04:52.365Z,44.30
2018-09-18T14:07:20.542Z,44.60
2018-09-18T14:09:48.862Z,44.40
2018-09-18T14:12:17.441Z,44.10
2018-09-18T14:14:45.710Z,44.10
2018-09-18T14:17:13.892Z,43.40
2018-09-18T14:19:42.301Z,42.40
2018-09-18T14:22:10.786Z,42.30
2018-09-18T14:24:39.653Z,42.10
2018-09-18T14:27:07.864Z,41.90
2018-09-18T14:29:36.028Z,41.70
2018-09-18T14:32:04.249Z,41.90
2018-09-18T14:34:32.410Z,41.90
2018-09-18T14:37:00.591Z,41.40
2018-09-18T14:39:28.780Z,40.50
2018-09-18T14:41:56.927Z,40.40
2018-09-18T14:44:25.085Z,40.00
2018-09-18T14:46:53.237Z,39.40
2018-09-18T14:49:21.501Z,38.20
2018-09-18T14:51:50.012Z,37.90
2018-09-18T14:54:18.221Z,37.40
2018-09-18T14:56:46.417Z,36.70
2018-09-18T14:59:14.645Z,35.60
2018-09-18T15:01:43.033Z,34.90
2018-09-18T15:04:11.235Z,34.60
2018-09-18T15:06:39.439Z,33.90
2018-09-18T15:09:09.278Z,33.30
2018-09-18T15:11:37.482Z,32.70
2018-09-18T15:14:05.868Z,32.50
2018-09-18T15:16:34.381Z,32.30
2018-09-18T15:19:02.586Z,32.20
2018-09-18T15:21:30.848Z,32.10
2018-09-18T15:23:58.932Z,31.90
2018-09-18T15:26:27.074Z,31.80
2018-09-18T15:28:55.252Z,31.80
2018-09-18T15:31:23.521Z,31.70
2018-09-18T15:33:51.834Z,31.40
2018-09-18T15:36:20.076Z,31.30
2018-09-18T15:38:48.243Z,31.20
2018-09-18T15:41:16.473Z,31.20
2018-09-18T15:43:44.695Z,31.20
2018-09-18T15:46:12.945Z,31.20
2018-09-18T15:48:41.126Z,31.20
2018-09-18T15:51:09.452Z,31.10
2018-09-18T15:53:37.596Z,31.10
2018-09-18T15:56:05.873Z,31.00
2018-09-18T15:58:34.009Z,31.00
2018-09-18T16:01:02.133Z,30.90
2018-09-18T16:03:30.340Z,30.90
2018-09-18T16:05:58.637Z,30.90
2018-09-18T16:08:27.162Z,30.80
2018-09-18T16:10:55.423Z,30.70
2018-09-18T16:13:23.767Z,30.70
2018-09-18T16:15:51.997Z,30.60
2018-09-18T16:18:20.498Z,30.50
2018-09-18T16:20:48.917Z,30.40
2018-09-18T16:23:17.133Z,30.40
2018-09-18T16:25:46.071Z,30.30
2018-09-18T16:28:14.258Z,30.30
2018-09-18T16:30:43.154Z,30.30
2018-09-18T16:33:11.380Z,30.10
2018-09-18T16:35:39.649Z,30.10
2018-09-18T16:38:08.292Z,30.00
2018-09-18T16:40:36.750Z,29.80
2018-09-18T16:43:04.945Z,29.70
2018-09-18T16:45:33.201Z,29.60
2018-09-18T16:48:01.506Z,29.50
2018-09-18T16:50:29.712Z,29.40
2018-09-18T16:52:58.561Z,29.20
2018-09-18T16:55:26.742Z,29.10
2018-09-18T16:57:55.048Z,29.00
2018-09-18T17:00:23.388Z,28.80
2018-09-18T17:02:51.580Z,28.80
2018-09-18T17:05:19.950Z,28.60
2018-09-18T17:07:48.428Z,28.50
2018-09-18T17:10:16.608Z,28.40
2018-09-18T17:12:44.826Z,28.20
2018-09-18T17:15:13.011Z,28.00
2018-09-18T17:17:41.148Z,27.90
2018-09-18T17:20:09.596Z,27.70
2018-09-18T17:22:37.892Z,27.50
2018-09-18T17:25:06.144Z,27.40
2018-09-18T17:27:34.382Z,27.20
2018-09-18T17:30:02.695Z,27.10
2018-09-18T17:32:30.849Z,26.90
2018-09-18T17:34:59.126Z,26.80
2018-09-18T17:37:27.446Z,26.70
2018-09-18T17:39:55.713Z,26.50
2018-09-18T17:42:23.846Z,26.40
2018-09-18T17:44:52.082Z,26.30
2018-09-18T17:47:20.287Z,26.10
2018-09-18T17:49:48.461Z,26.00
2018-09-18T17:52:16.577Z,25.90
2018-09-18T17:54:44.709Z,25.80
2018-09-18T17:57:12.887Z,25.80
2018-09-18T17:59:41.228Z,25.70
2018-09-18T18:02:09.706Z,25.60
2018-09-18T18:04:38.208Z,25.50
2018-09-18T18:07:06.650Z,25.50
2018-09-18T18:09:34.730Z,25.40
2018-09-18T18:12:02.999Z,25.40
2018-09-18T18:14:31.261Z,25.40
2018-09-18T18:16:59.445Z,25.30
2018-09-18T18:19:27.644Z,25.40
2018-09-18T18:21:55.844Z,25.30
2018-09-18T18:24:24.216Z,25.40
2018-09-18T18:26:52.490Z,25.20
2018-09-18T18:29:20.681Z,25.10
2018-09-18T18:31:49.004Z,25.00
2018-09-18T18:34:17.233Z,25.00
2018-09-18T18:36:45.479Z,24.80
2018-09-18T18:39:13.746Z,24.70
2018-09-18T18:41:41.986Z,24.60
2018-09-18T18:44:10.088Z,24.50
2018-09-18T18:46:38.187Z,24.50
2018-09-18T18:49:06.553Z,24.50
2018-09-18T18:51:34.737Z,24.40
2018-09-18T18:54:03.062Z,24.30
2018-09-18T18:56:31.261Z,24.20
2018-09-18T18:58:59.599Z,24.10
2018-09-18T19:01:27.731Z,24.00
2018-09-18T19:03:55.921Z,23.90
2018-09-18T19:06:24.269Z,23.90
2018-09-18T19:08:52.418Z,23.80
2018-09-18T19:11:20.719Z,23.80
2018-09-18T19:13:48.945Z,23.70
2018-09-18T19:16:17.226Z,23.70
2018-09-18T19:18:45.463Z,23.60
2018-09-18T19:21:13.669Z,23.50
2018-09-18T19:23:41.894Z,23.50
2018-09-18T19:26:10.807Z,23.50
2018-09-18T19:28:39.324Z,23.40
2018-09-18T19:31:08.804Z,23.40
2018-09-18T19:33:37.141Z,23.40
2018-09-18T19:36:05.390Z,23.40
2018-09-18T19:38:33.612Z,23.50
2018-09-18T19:41:01.758Z,23.50
2018-09-18T19:43:30.028Z,23.50
2018-09-18T19:45:58.177Z,23.50
2018-09-18T19:48:26.402Z,23.50
2018-09-18T19:50:54.566Z,23.50
2018-09-18T19:53:22.684Z,23.60
2018-09-18T19:55:50.844Z,23.50
2018-09-18T19:58:19.016Z,23.60
2018-09-18T20:00:48.020Z,23.60
2018-09-18T20:03:16.165Z,23.60
2018-09-18T20:05:44.368Z,23.60
2018-09-18T20:08:12.495Z,23.50
2018-09-18T20:10:40.741Z,23.60
2018-09-18T20:13:08.979Z,23.60
2018-09-18T20:15:37.279Z,23.50
2018-09-18T20:18:05.490Z,23.60
2018-09-18T20:20:33.677Z,23.60
2018-09-18T20:23:01.837Z,23.60
2018-09-18T20:25:30.190Z,23.70
2018-09-18T20:27:58.337Z,23.70
2018-09-18T20:30:26.554Z,23.60
2018-09-18T20:32:54.770Z,23.60
2018-09-18T20:35:23.189Z,23.60
2018-09-18T20:37:51.388Z,23.50
2018-09-18T20:40:19.571Z,23.50
2018-09-18T20:42:47.802Z,23.30
2018-09-18T20:45:16.009Z,23.30
2018-09-18T20:47:44.251Z,23.30
2018-09-18T20:50:12.494Z,23.20
2018-09-18T20:52:40.836Z,23.20
2018-09-18T20:55:10.577Z,23.10
2018-09-18T20:57:40.181Z,23.10
2018-09-18T21:00:09.798Z,23.10
2018-09-18T21:02:40.117Z,23.00
2018-09-18T21:05:08.986Z,22.90
2018-09-18T21:07:37.612Z,22.80
2018-09-18T21:10:06.055Z,22.80
2018-09-18T21:12:34.404Z,22.70
2018-09-18T21:15:02.704Z,22.70
2018-09-18T21:17:31.221Z,22.60
2018-09-18T21:19:59.420Z,22.50
2018-09-18T21:22:27.853Z,22.40
2018-09-18T21:25:12.074Z,22.30
2018-09-18T21:27:40.879Z,22.20
2018-09-18T21:30:09.099Z,22.10
2018-09-18T21:32:37.818Z,22.00
2018-09-18T21:35:06.311Z,22.00
2018-09-18T21:37:34.674Z,21.90
2018-09-18T21:40:02.868Z,21.80
2018-09-18T21:42:31.261Z,21.80
2018-09-18T21:44:59.810Z,21.70
2018-09-18T21:47:28.173Z,21.60
2018-09-18T21:49:56.410Z,21.60
2018-09-18T21:52:25.199Z,21.50
2018-09-18T21:55:00.185Z,21.50
2018-09-18T21:57:29.493Z,21.40
2018-09-18T21:59:57.732Z,21.40
2018-09-18T22:02:26.012Z,21.30
2018-09-18T22:04:54.238Z,21.30
2018-09-18T22:07:23.324Z,21.20
2018-09-18T22:09:51.635Z,21.20
2018-09-18T22:12:20.027Z,21.20
2018-09-18T22:14:48.248Z,21.10
2018-09-18T22:17:16.555Z,21.10
2018-09-18T22:19:44.780Z,21.00
2018-09-18T22:22:13.209Z,21.00
2018-09-18T22:24:41.311Z,21.00
2018-09-18T22:27:09.683Z,21.00
2018-09-18T22:29:37.816Z,21.00
2018-09-18T22:32:06.427Z,20.90
2018-09-18T22:34:34.729Z,20.90
2018-09-18T22:37:03.284Z,20.90
2018-09-18T22:39:31.457Z,20.80
2018-09-18T22:42:00.545Z,20.80
2018-09-18T22:44:28.698Z,20.80
2018-09-18T22:46:57.130Z,20.80
2018-09-18T22:49:25.285Z,20.70
2018-09-18T22:51:53.597Z,20.70
2018-09-18T22:54:21.945Z,20.70
2018-09-18T22:56:50.376Z,20.60
2018-09-18T22:59:19.100Z,20.60
2018-09-18T23:01:47.407Z,20.60
2018-09-18T23:04:15.577Z,20.50
2018-09-18T23:06:43.937Z,20.50
2018-09-18T23:09:12.135Z,20.50
2018-09-18T23:11:40.472Z,20.50
2018-09-18T23:14:08.995Z,20.50
2018-09-18T23:16:37.274Z,20.40
2018-09-18T23:19:05.600Z,20.40
2018-09-18T23:21:33.927Z,20.40
2018-09-18T23:24:02.437Z,20.40
2018-09-18T23:26:30.672Z,20.40
2018-09-18T23:28:59.253Z,20.30
2018-09-18T23:31:28.159Z,20.30
2018-09-18T23:33:56.382Z,20.30
2018-09-18T23:36:24.590Z,20.20
2018-09-18T23:38:52.948Z,20.20
2018-09-18T23:41:21.224Z,20.20
2018-09-18T23:43:49.542Z,20.20
2018-09-18T23:46:17.932Z,20.20
2018-09-18T23:48:46.238Z,20.20
2018-09-18T23:51:14.434Z,20.10
2018-09-18T23:53:42.723Z,20.10
2018-09-18T23:56:10.918Z,20.10
2018-09-18T23:58:39.348Z,20.10
